Time;durP1;ratioP1;P1;durP2;ratioP2;P2;SDS_P1;SDS_P2;PMS_P1;PMS_P2;Temp;Humidity;BMP_temperature;BMP_pressure;BME280_temperature;BME280_humidity;BME280_pressure;Samples;Min_cycle;Max_cycle;Signal;HPM_P1;HPM_P2
2021/08/14 00:00:39;;;;;;;;;;;14.20;99.90;;;;;;5094646;28;19934;-68
2021/08/14 00:03:04;;;;;;;;;;;14.20;99.90;;;;;;5094601;28;19912;-68
2021/08/14 00:05:30;;;;;;;;;;;14.20;99.90;;;;;;5094500;28;20353;-68
2021/08/14 00:07:55;;;;;;;;;;;14.20;99.90;;;;;;5076484;28;19908;-68
2021/08/14 00:10:21;;;;;;;;;;;14.10;99.90;;;;;;5094512;28;19970;-68
2021/08/14 00:12:46;;;;;;;;;;;14.10;99.90;;;;;;5076071;28;19915;-68
2021/08/14 00:15:11;;;;;;;;;;;14.10;99.90;;;;;;5076021;28;20362;-68
2021/08/14 00:17:37;;;;;;;;;;;14.00;99.90;;;;;;5094108;28;19909;-68
2021/08/14 00:20:03;;;;;;;;;;;14.00;99.90;;;;;;5094365;28;20254;-68
2021/08/14 00:22:29;;;;;;;;;;;13.90;99.90;;;;;;5094166;28;19970;-68
2021/08/14 00:24:54;;;;;;;;;;;13.90;99.90;;;;;;5093842;28;19916;-69
2021/08/14 00:27:19;;;;;;;;;;;13.90;99.90;;;;;;5093990;28;19908;-68
2021/08/14 00:29:45;;;;;;;;;;;13.90;99.90;;;;;;5093979;28;19951;-68
2021/08/14 00:32:10;;;;;;;;;;;13.90;99.90;;;;;;5094253;28;20369;-68
2021/08/14 00:34:36;;;;;;;;;;;13.90;99.90;;;;;;5093939;28;20361;-68
2021/08/14 00:37:01;;;;;;;;;;;13.80;99.90;;;;;;5093913;28;19908;-68
2021/08/14 00:39:27;;;;;;;;;;;13.80;99.90;;;;;;5076178;28;19908;-68
2021/08/14 00:41:52;;;;;;;;;;;13.80;99.90;;;;;;5075843;28;19934;-68
2021/08/14 00:44:18;;;;;;;;;;;13.80;99.90;;;;;;5094141;28;19955;-68
2021/08/14 00:46:44;;;;;;;;;;;13.70;99.90;;;;;;5094048;28;19912;-68
2021/08/14 00:49:10;;;;;;;;;;;13.70;99.90;;;;;;5094367;28;20017;-68
2021/08/14 00:51:36;;;;;;;;;;;13.70;99.90;;;;;;5094052;28;19908;-68
2021/08/14 00:54:01;;;;;;;;;;;13.70;99.90;;;;;;5094070;28;19912;-68
2021/08/14 00:56:27;;;;;;;;;;;13.70;99.90;;;;;;5094040;28;19908;-68
2021/08/14 00:58:53;;;;;;;;;;;13.60;99.90;;;;;;5094004;28;19915;-68
2021/08/14 01:01:22;;;;;;;;;;;13.70;99.90;;;;;;5075601;28;19908;-68
2021/08/14 01:03:48;;;;;;;;;;;13.60;99.90;;;;;;5093691;28;19907;-68
2021/08/14 01:06:15;;;;;;;;;;;13.60;99.90;;;;;;5093923;28;20448;-68
2021/08/14 01:08:41;;;;;;;;;;;13.60;99.90;;;;;;5093954;28;20007;-68
2021/08/14 01:11:07;;;;;;;;;;;13.50;99.90;;;;;;5093911;28;19908;-68
2021/08/14 01:13:32;;;;;;;;;;;13.50;99.90;;;;;;5075504;28;19915;-68
2021/08/14 01:15:58;;;;;;;;;;;13.50;99.90;;;;;;5093583;28;19908;-68
2021/08/14 01:18:24;;;;;;;;;;;13.60;99.90;;;;;;5093575;28;19908;-68
2021/08/14 01:20:50;;;;;;;;;;;13.60;99.90;;;;;;5093529;28;19909;-68
2021/08/14 01:23:16;;;;;;;;;;;13.50;99.90;;;;;;5093496;28;19912;-68
2021/08/14 01:25:42;;;;;;;;;;;13.50;99.90;;;;;;5075398;28;19924;-68
2021/08/14 01:28:08;;;;;;;;;;;13.40;99.90;;;;;;5093458;28;19994;-68
2021/08/14 01:30:34;;;;;;;;;;;13.40;99.90;;;;;;5075895;28;19908;-68
2021/08/14 01:33:00;;;;;;;;;;;13.30;99.90;;;;;;5094183;28;19908;-68
2021/08/14 01:35:25;;;;;;;;;;;13.40;99.90;;;;;;5097386;28;20345;-68
2021/08/14 01:37:50;;;;;;;;;;;13.30;99.90;;;;;;5078866;28;19908;-68
2021/08/14 01:40:16;;;;;;;;;;;13.30;99.90;;;;;;5097010;28;19908;-68
2021/08/14 01:42:41;;;;;;;;;;;13.30;99.90;;;;;;5096977;28;20333;-68
2021/08/14 01:45:07;;;;;;;;;;;13.30;99.90;;;;;;5096888;28;20395;-68
2021/08/14 01:47:33;;;;;;;;;;;13.30;99.90;;;;;;5079170;28;19963;-68
2021/08/14 01:49:58;;;;;;;;;;;13.30;99.90;;;;;;5097113;28;19944;-68
2021/08/14 01:52:24;;;;;;;;;;;13.30;99.90;;;;;;5097036;28;20108;-68
2021/08/14 01:54:49;;;;;;;;;;;13.30;99.90;;;;;;5079095;28;19908;-68
2021/08/14 01:57:16;;;;;;;;;;;13.20;99.90;;;;;;5097250;28;19912;-68
2021/08/14 01:59:42;;;;;;;;;;;13.20;99.90;;;;;;5097211;28;19961;-68
2021/08/14 02:02:08;;;;;;;;;;;13.10;99.90;;;;;;5097152;28;19908;-68
2021/08/14 02:04:33;;;;;;;;;;;13.10;99.90;;;;;;5061743;28;19908;-68
2021/08/14 02:06:59;;;;;;;;;;;13.10;99.90;;;;;;5078514;28;19912;-68
2021/08/14 02:09:25;;;;;;;;;;;13.10;99.90;;;;;;5078312;28;19912;-68
2021/08/14 02:11:50;;;;;;;;;;;13.10;99.90;;;;;;5096379;28;20278;-68
2021/08/14 02:14:16;;;;;;;;;;;13.00;99.90;;;;;;5096645;28;19909;-68
2021/08/14 02:16:42;;;;;;;;;;;13.00;99.90;;;;;;5096565;28;19957;-68
2021/08/14 02:19:07;;;;;;;;;;;12.90;99.90;;;;;;5096551;28;19933;-68
2021/08/14 02:21:33;;;;;;;;;;;12.90;99.90;;;;;;5096193;28;19915;-68
2021/08/14 02:23:59;;;;;;;;;;;12.90;99.90;;;;;;5096430;28;19908;-68
2021/08/14 02:26:25;;;;;;;;;;;12.90;99.90;;;;;;5061055;28;20006;-69
2021/08/14 02:28:51;;;;;;;;;;;12.90;99.90;;;;;;5096058;28;20372;-68
2021/08/14 02:31:16;;;;;;;;;;;12.90;99.90;;;;;;5096018;28;19908;-68
2021/08/14 02:33:42;;;;;;;;;;;12.80;99.90;;;;;;5096257;28;20357;-68
2021/08/14 02:36:07;;;;;;;;;;;12.80;99.90;;;;;;5078181;28;20067;-68
2021/08/14 02:38:42;;;;;;;;;;;12.80;99.90;;;;;;5095850;28;19915;-68
2021/08/14 02:41:08;;;;;;;;;;;12.80;99.90;;;;;;5096107;28;19915;-68
2021/08/14 02:43:34;;;;;;;;;;;12.80;99.90;;;;;;5096067;28;19908;-68
2021/08/14 02:46:00;;;;;;;;;;;12.80;99.90;;;;;;5077537;28;19959;-68
2021/08/14 02:48:27;;;;;;;;;;;12.80;99.90;;;;;;5077528;28;19943;-68
2021/08/14 02:50:52;;;;;;;;;;;12.70;99.90;;;;;;5095918;28;19908;-68
2021/08/14 02:53:18;;;;;;;;;;;12.70;99.90;;;;;;5077716;28;19908;-68
2021/08/14 02:55:43;;;;;;;;;;;12.70;99.90;;;;;;5095554;28;20003;-68
2021/08/14 02:58:09;;;;;;;;;;;12.60;99.90;;;;;;5095530;28;19908;-68
2021/08/14 03:00:34;;;;;;;;;;;12.60;99.90;;;;;;5095473;28;19952;-68
2021/08/14 03:03:00;;;;;;;;;;;12.60;99.90;;;;;;5095410;28;19908;-68
2021/08/14 03:05:25;;;;;;;;;;;12.60;99.90;;;;;;5077089;28;20296;-68
2021/08/14 03:07:51;;;;;;;;;;;12.60;99.90;;;;;;5077722;28;19908;-68
2021/08/14 03:10:16;;;;;;;;;;;12.50;99.90;;;;;;5077691;28;20340;-68
2021/08/14 03:12:42;;;;;;;;;;;12.50;99.90;;;;;;5095519;28;19930;-68
2021/08/14 03:15:08;;;;;;;;;;;12.50;99.90;;;;;;5095425;28;19911;-68
2021/08/14 03:17:33;;;;;;;;;;;12.50;99.90;;;;;;5077318;28;19959;-68
2021/08/14 03:20:00;;;;;;;;;;;12.50;99.90;;;;;;5095084;28;19914;-68
2021/08/14 03:22:25;;;;;;;;;;;12.50;99.90;;;;;;5095590;28;20007;-68
2021/08/14 03:24:51;;;;;;;;;;;12.40;99.90;;;;;;5077291;28;19969;-68
2021/08/14 03:27:16;;;;;;;;;;;12.40;99.90;;;;;;5095174;28;19908;-68
2021/08/14 03:29:41;;;;;;;;;;;12.40;99.90;;;;;;5095188;28;19908;-68
2021/08/14 03:32:07;;;;;;;;;;;12.40;99.90;;;;;;5095090;28;19908;-68
2021/08/14 03:34:33;;;;;;;;;;;12.30;99.90;;;;;;5095104;28;20384;-68
2021/08/14 03:36:58;;;;;;;;;;;12.30;99.90;;;;;;5095050;28;20049;-68
2021/08/14 03:39:23;;;;;;;;;;;12.30;99.90;;;;;;5095001;28;20384;-68
2021/08/14 03:41:49;;;;;;;;;;;12.30;99.90;;;;;;5077087;28;19908;-68
2021/08/14 03:44:14;;;;;;;;;;;12.30;99.90;;;;;;5077072;28;19912;-68
2021/08/14 03:46:40;;;;;;;;;;;12.20;99.90;;;;;;5094814;28;19912;-68
2021/08/14 03:49:05;;;;;;;;;;;12.20;99.90;;;;;;5094829;28;19912;-68
2021/08/14 03:51:31;;;;;;;;;;;12.20;99.90;;;;;;5094842;28;19952;-68
2021/08/14 03:53:56;;;;;;;;;;;12.20;99.90;;;;;;5094750;28;19908;-68
2021/08/14 03:56:22;;;;;;;;;;;12.10;99.90;;;;;;5094360;28;19908;-68
2021/08/14 03:58:47;;;;;;;;;;;12.20;99.90;;;;;;5077169;28;20305;-68
2021/08/14 04:01:13;;;;;;;;;;;12.10;99.90;;;;;;5094359;28;20333;-68
2021/08/14 04:03:38;;;;;;;;;;;12.10;99.90;;;;;;5094326;28;19911;-68
2021/08/14 04:06:04;;;;;;;;;;;12.10;99.90;;;;;;5094213;28;20007;-68
2021/08/14 04:08:29;;;;;;;;;;;12.20;99.90;;;;;;5094268;28;19912;-68
2021/08/14 04:10:55;;;;;;;;;;;12.10;99.90;;;;;;5094255;28;19919;-68
2021/08/14 04:13:21;;;;;;;;;;;12.10;99.90;;;;;;5094193;28;19970;-68
2021/08/14 04:15:46;;;;;;;;;;;12.10;99.90;;;;;;5094151;28;19908;-68
2021/08/14 04:18:12;;;;;;;;;;;12.10;99.90;;;;;;5076404;28;19914;-68
2021/08/14 04:20:37;;;;;;;;;;;12.10;99.90;;;;;;5094657;28;19915;-68
2021/08/14 04:23:03;;;;;;;;;;;12.10;99.90;;;;;;5094639;28;19930;-67
2021/08/14 04:25:28;;;;;;;;;;;12.10;99.90;;;;;;5094183;28;19920;-68
2021/08/14 04:27:54;;;;;;;;;;;12.10;99.90;;;;;;5094022;28;19908;-68
2021/08/14 04:30:20;;;;;;;;;;;12.10;99.90;;;;;;5094573;28;20396;-68
2021/08/14 04:32:45;;;;;;;;;;;12.20;99.90;;;;;;5094524;28;19912;-68
2021/08/14 04:35:12;;;;;;;;;;;12.20;99.90;;;;;;5094839;28;19908;-68
2021/08/14 04:37:38;;;;;;;;;;;12.20;99.90;;;;;;5094523;28;19908;-68
2021/08/14 04:40:04;;;;;;;;;;;12.30;99.90;;;;;;5075825;28;19938;-68
2021/08/14 04:42:30;;;;;;;;;;;12.30;99.90;;;;;;5094473;28;20010;-67
2021/08/14 04:44:55;;;;;;;;;;;12.30;99.90;;;;;;5094738;28;19959;-68
2021/08/14 04:47:20;;;;;;;;;;;12.40;99.90;;;;;;5094372;28;19912;-68
2021/08/14 04:49:46;;;;;;;;;;;12.50;99.90;;;;;;5075787;28;19908;-68
2021/08/14 04:52:11;;;;;;;;;;;12.60;99.90;;;;;;5093814;28;19915;-68
2021/08/14 04:54:37;;;;;;;;;;;12.60;99.90;;;;;;5075708;28;20053;-68
2021/08/14 04:57:02;;;;;;;;;;;12.80;99.90;;;;;;5093795;28;19908;-68
2021/08/14 04:59:28;;;;;;;;;;;12.80;99.90;;;;;;5094023;28;19941;-68
2021/08/14 05:01:54;;;;;;;;;;;12.90;99.90;;;;;;5094020;28;19912;-68
2021/08/14 05:04:19;;;;;;;;;;;13.00;99.90;;;;;;5075907;28;19908;-68
2021/08/14 05:06:44;;;;;;;;;;;13.10;99.90;;;;;;5093634;28;19916;-68
2021/08/14 05:09:10;;;;;;;;;;;13.20;99.90;;;;;;5077983;28;19908;-68
2021/08/14 05:11:35;;;;;;;;;;;13.30;99.90;;;;;;5097567;28;19908;-68
2021/08/14 05:14:01;;;;;;;;;;;13.50;99.90;;;;;;5097419;28;20280;-68
2021/08/14 05:16:26;;;;;;;;;;;13.60;99.90;;;;;;5079591;28;19999;-68
2021/08/14 05:18:52;;;;;;;;;;;13.70;99.90;;;;;;5097735;28;19915;-68
2021/08/14 05:21:17;;;;;;;;;;;13.90;99.90;;;;;;5079582;28;19908;-68
2021/08/14 05:23:43;;;;;;;;;;;13.90;99.90;;;;;;5079538;28;19908;-68
2021/08/14 05:26:08;;;;;;;;;;;14.10;99.90;;;;;;5079103;28;20393;-68
2021/08/14 05:28:34;;;;;;;;;;;14.10;99.90;;;;;;5079070;28;19908;-68
2021/08/14 05:30:59;;;;;;;;;;;14.20;99.90;;;;;;5079393;28;19915;-68
2021/08/14 05:33:25;;;;;;;;;;;14.30;99.90;;;;;;5097438;28;19912;-68
2021/08/14 05:35:50;;;;;;;;;;;14.50;99.90;;;;;;5097368;28;19916;-68
2021/08/14 05:38:16;;;;;;;;;;;14.60;99.90;;;;;;5097369;28;19954;-68
2021/08/14 05:40:41;;;;;;;;;;;14.70;99.90;;;;;;5062517;28;19954;-68
2021/08/14 05:43:07;;;;;;;;;;;15.00;99.90;;;;;;5096997;28;19954;-68
2021/08/14 05:45:32;;;;;;;;;;;15.20;99.90;;;;;;5096864;28;19908;-68
2021/08/14 05:48:00;;;;;;;;;;;15.60;99.90;;;;;;5079100;28;20012;-69
2021/08/14 05:50:26;;;;;;;;;;;16.70;99.90;;;;;;5097110;28;20002;-69
2021/08/14 05:52:51;;;;;;;;;;;18.60;99.90;;;;;;5097063;28;20362;-69
2021/08/14 05:55:17;;;;;;;;;;;19.90;99.90;;;;;;5096980;28;19908;-70
2021/08/14 05:57:42;;;;;;;;;;;21.10;99.90;;;;;;5097005;28;19908;-70
2021/08/14 06:00:08;;;;;;;;;;;21.80;99.90;;;;;;5096939;28;19908;-70
2021/08/14 06:02:33;;;;;;;;;;;22.50;99.90;;;;;;5096911;28;19908;-70
2021/08/14 06:04:59;;;;;;;;;;;23.30;99.90;;;;;;5078750;28;20323;-70
2021/08/14 06:07:24;;;;;;;;;;;23.60;99.90;;;;;;5096731;28;19958;-70
2021/08/14 06:09:50;;;;;;;;;;;23.70;99.90;;;;;;5096727;28;19908;-70
2021/08/14 06:12:15;;;;;;;;;;;23.70;99.90;;;;;;5078653;28;20015;-70
2021/08/14 06:14:41;;;;;;;;;;;23.40;99.90;;;;;;5096678;28;19908;-70
2021/08/14 06:17:06;;;;;;;;;;;24.00;99.90;;;;;;5078591;28;19908;-70
2021/08/14 06:19:32;;;;;;;;;;;24.00;99.90;;;;;;5061665;28;19915;-70
2021/08/14 06:21:57;;;;;;;;;;;23.70;99.90;;;;;;5078036;28;19909;-70
2021/08/14 06:24:23;;;;;;;;;;;23.80;99.90;;;;;;5096120;28;19908;-70
2021/08/14 06:26:48;;;;;;;;;;;23.90;99.90;;;;;;5095839;28;19920;-70
2021/08/14 06:29:14;;;;;;;;;;;23.90;99.90;;;;;;5078516;28;19958;-70
2021/08/14 06:31:39;;;;;;;;;;;23.40;99.90;;;;;;5077875;28;19916;-70
2021/08/14 06:34:04;;;;;;;;;;;23.70;99.90;;;;;;5077934;28;20414;-70
2021/08/14 06:36:30;;;;;;;;;;;24.20;99.90;;;;;;5077798;28;20380;-70
2021/08/14 06:38:56;;;;;;;;;;;24.90;99.90;;;;;;5061668;28;19931;-70
2021/08/14 06:41:21;;;;;;;;;;;24.70;99.90;;;;;;5078513;28;19931;-70
2021/08/14 06:43:47;;;;;;;;;;;24.30;99.90;;;;;;5077661;28;20345;-70
2021/08/14 06:46:12;;;;;;;;;;;24.40;99.90;;;;;;5095696;28;20007;-70
2021/08/14 06:48:38;;;;;;;;;;;24.30;99.90;;;;;;5077964;28;19908;-70
2021/08/14 06:51:03;;;;;;;;;;;24.20;99.90;;;;;;5077450;28;19908;-70
2021/08/14 06:53:29;;;;;;;;;;;24.10;99.90;;;;;;5078002;28;19909;-70
2021/08/14 06:55:54;;;;;;;;;;;24.10;99.90;;;;;;5095857;28;20372;-70
2021/08/14 06:58:20;;;;;;;;;;;23.50;99.90;;;;;;5095734;28;19923;-70
2021/08/14 07:00:45;;;;;;;;;;;24.00;99.90;;;;;;5077278;28;19919;-70
2021/08/14 07:03:11;;;;;;;;;;;24.60;99.90;;;;;;5060488;28;20316;-70
2021/08/14 07:05:38;;;;;;;;;;;24.60;99.90;;;;;;5077491;28;19908;-70
2021/08/14 07:08:04;;;;;;;;;;;24.30;99.90;;;;;;5095868;28;20041;-70
2021/08/14 07:10:29;;;;;;;;;;;24.00;99.90;;;;;;5095548;28;19974;-70
2021/08/14 07:12:55;;;;;;;;;;;23.60;99.90;;;;;;5095497;28;19916;-69
2021/08/14 07:15:20;;;;;;;;;;;23.60;99.90;;;;;;5077372;28;20422;-69
2021/08/14 07:17:46;;;;;;;;;;;23.90;99.90;;;;;;5076861;28;20273;-69
2021/08/14 07:20:12;;;;;;;;;;;23.70;99.90;;;;;;5077440;28;20002;-70
2021/08/14 07:22:37;;;;;;;;;;;23.50;99.90;;;;;;5095315;28;19930;-70
2021/08/14 07:25:03;;;;;;;;;;;23.80;99.90;;;;;;5095032;28;19908;-70
2021/08/14 07:27:28;;;;;;;;;;;24.20;99.90;;;;;;5095071;28;20380;-70
2021/08/14 07:29:54;;;;;;;;;;;24.10;99.90;;;;;;5076794;28;19908;-70
2021/08/14 07:32:19;;;;;;;;;;;23.70;99.90;;;;;;5076260;28;19957;-70
2021/08/14 07:34:45;;;;;;;;;;;23.80;99.90;;;;;;5076615;28;19919;-69
2021/08/14 07:37:10;;;;;;;;;;;23.80;99.90;;;;;;5076606;28;19943;-70
2021/08/14 07:39:36;;;;;;;;;;;24.20;99.90;;;;;;5095291;28;19908;-70
2021/08/14 07:42:01;;;;;;;;;;;24.40;99.90;;;;;;5077155;28;20320;-69
2021/08/14 07:44:27;;;;;;;;;;;24.90;99.90;;;;;;5095187;28;20293;-70
2021/08/14 07:46:52;;;;;;;;;;;24.70;99.90;;;;;;5076422;28;20277;-69
2021/08/14 07:49:18;;;;;;;;;;;24.90;99.90;;;;;;5094542;28;19912;-69
2021/08/14 07:51:43;;;;;;;;;;;24.80;99.90;;;;;;5094763;28;19915;-70
2021/08/14 07:54:08;;;;;;;;;;;24.60;99.90;;;;;;5076225;28;19908;-70
2021/08/14 07:56:34;;;;;;;;;;;25.10;99.90;;;;;;5094333;28;19908;-70
2021/08/14 07:58:59;;;;;;;;;;;25.20;99.90;;;;;;5094604;28;19943;-69
2021/08/14 08:01:25;;;;;;;;;;;25.30;99.90;;;;;;5076084;28;20357;-69
2021/08/14 08:03:50;;;;;;;;;;;25.90;99.90;;;;;;5094291;28;19939;-70
2021/08/14 08:06:16;;;;;;;;;;;26.70;99.90;;;;;;5094490;28;19933;-70
2021/08/14 08:08:41;;;;;;;;;;;26.60;99.90;;;;;;5094567;28;20272;-70
2021/08/14 08:11:06;;;;;;;;;;;25.90;99.90;;;;;;5094464;28;20341;-70
2021/08/14 08:13:32;;;;;;;;;;;25.90;99.90;;;;;;5094383;28;19908;-70
2021/08/14 08:15:57;;;;;;;;;;;25.60;99.90;;;;;;5094379;28;20004;-70
2021/08/14 08:18:23;;;;;;;;;;;26.00;99.90;;;;;;5094396;28;19912;-70
2021/08/14 08:20:48;;;;;;;;;;;25.90;99.90;;;;;;5094319;28;19915;-70
2021/08/14 08:23:14;;;;;;;;;;;25.40;99.90;;;;;;5076746;28;20269;-70
2021/08/14 08:25:40;;;;;;;;;;;25.10;99.90;;;;;;5075680;28;19924;-70
2021/08/14 08:28:05;;;;;;;;;;;25.50;99.90;;;;;;5093956;28;19912;-70
2021/08/14 08:30:31;;;;;;;;;;;25.50;99.90;;;;;;5094013;28;20014;-69
2021/08/14 08:32:57;;;;;;;;;;;25.60;99.90;;;;;;5093962;28;19909;-70
2021/08/14 08:35:23;;;;;;;;;;;25.90;99.90;;;;;;5094510;28;19908;-70
2021/08/14 08:37:48;;;;;;;;;;;25.40;99.90;;;;;;5075748;28;19908;-70
2021/08/14 08:40:14;;;;;;;;;;;25.20;99.90;;;;;;5076475;28;19908;-70
2021/08/14 08:42:41;;;;;;;;;;;25.10;99.90;;;;;;5077593;28;19908;-70
2021/08/14 08:45:06;;;;;;;;;;;25.40;99.90;;;;;;5098024;28;19915;-70
2021/08/14 08:47:33;;;;;;;;;;;25.20;99.90;;;;;;5097922;28;19946;-69
2021/08/14 08:49:58;;;;;;;;;;;25.40;99.90;;;;;;5097954;28;19973;-70
2021/08/14 08:52:24;;;;;;;;;;;25.10;99.90;;;;;;5098449;28;19908;-70
2021/08/14 08:54:51;;;;;;;;;;;25.30;99.90;;;;;;5098421;28;19908;-70
2021/08/14 08:57:17;;;;;;;;;;;25.70;99.90;;;;;;5079719;28;19954;-70
2021/08/14 08:59:44;;;;;;;;;;;26.50;99.90;;;;;;5098006;28;19908;-70
2021/08/14 09:02:26;;;;;;;;;;;26.10;99.90;;;;;;5097986;28;19908;-70
2021/08/14 09:05:12;;;;;;;;;;;26.30;99.90;;;;;;5097911;28;19915;-70
2021/08/14 09:07:38;;;;;;;;;;;26.30;99.90;;;;;;5097782;28;20277;-70
2021/08/14 09:10:04;;;;;;;;;;;26.30;99.90;;;;;;5097628;28;19916;-70
2021/08/14 09:12:31;;;;;;;;;;;26.30;99.90;;;;;;5097538;28;20328;-70
2021/08/14 09:14:57;;;;;;;;;;;26.40;99.90;;;;;;5097783;28;19908;-70
2021/08/14 09:17:24;;;;;;;;;;;26.50;99.80;;;;;;5097763;28;19916;-69
2021/08/14 09:20:03;;;;;;;;;;;26.50;99.70;;;;;;5079325;28;19915;-70
2021/08/14 09:22:28;;;;;;;;;;;27.20;99.20;;;;;;5097336;28;20311;-70
2021/08/14 09:24:53;;;;;;;;;;;26.90;99.90;;;;;;5097370;28;19908;-70
2021/08/14 09:27:19;;;;;;;;;;;26.90;99.00;;;;;;5079378;28;20369;-70
2021/08/14 09:29:46;;;;;;;;;;;26.90;99.00;;;;;;5079041;28;20026;-70
2021/08/14 09:32:14;;;;;;;;;;;27.10;98.80;;;;;;5097184;28;19908;-70
2021/08/14 09:34:41;;;;;;;;;;;27.20;98.50;;;;;;5097725;28;19915;-70
2021/08/14 09:37:08;;;;;;;;;;;26.90;99.30;;;;;;5097646;28;19908;-70
2021/08/14 09:39:47;;;;;;;;;;;26.80;99.30;;;;;;5078879;28;19916;-70
2021/08/14 09:42:13;;;;;;;;;;;27.50;98.80;;;;;;5096966;28;19915;-69
2021/08/14 09:44:38;;;;;;;;;;;27.80;97.80;;;;;;5096944;28;19908;-70
2021/08/14 09:47:09;;;;;;;;;;;27.70;97.70;;;;;;5096820;28;19916;-69
2021/08/14 09:49:51;;;;;;;;;;;27.50;97.00;;;;;;5079854;28;20354;-70
2021/08/14 09:52:18;;;;;;;;;;;27.60;98.10;;;;;;5078593;28;19908;-70
2021/08/14 09:54:43;;;;;;;;;;;27.30;97.60;;;;;;5095983;28;19915;-70
2021/08/14 09:57:12;;;;;;;;;;;28.00;97.70;;;;;;5078520;28;19908;-70
2021/08/14 09:59:38;;;;;;;;;;;28.10;96.40;;;;;;5096653;28;19915;-70
2021/08/14 10:02:06;;;;;;;;;;;28.20;97.20;;;;;;5096625;28;19908;-70
2021/08/14 10:04:31;;;;;;;;;;;28.60;95.60;;;;;;5096602;28;20307;-70
2021/08/14 10:06:57;;;;;;;;;;;28.80;94.50;;;;;;5096409;28;20006;-70
2021/08/14 10:09:23;;;;;;;;;;;28.30;94.30;;;;;;5096490;28;19915;-70
2021/08/14 10:11:48;;;;;;;;;;;28.90;94.00;;;;;;5096302;28;19912;-70
2021/08/14 10:14:14;;;;;;;;;;;28.60;93.00;;;;;;5096382;28;19961;-70
2021/08/14 10:16:40;;;;;;;;;;;29.00;92.60;;;;;;5096571;28;19912;-70
2021/08/14 10:19:05;;;;;;;;;;;28.80;92.70;;;;;;5096498;28;20348;-70
2021/08/14 10:21:31;;;;;;;;;;;29.00;92.60;;;;;;5096368;28;19958;-70
2021/08/14 10:23:56;;;;;;;;;;;28.10;91.50;;;;;;5096398;28;20003;-70
2021/08/14 10:26:26;;;;;;;;;;;27.70;92.60;;;;;;5095880;28;20292;-70
2021/08/14 10:28:52;;;;;;;;;;;28.10;94.50;;;;;;5096042;28;20353;-70
2021/08/14 10:36:50;;;;;;;;;;;28.20;91.20;;;;;;5092312;28;20246;-69
2021/08/14 10:39:31;;;;;;;;;;;29.00;91.50;;;;;;5091675;28;20040;-69
2021/08/14 10:41:57;;;;;;;;;;;28.20;91.70;;;;;;5091685;28;19908;-69
2021/08/14 10:44:46;;;;;;;;;;;28.00;91.00;;;;;;5091939;28;19943;-69
2021/08/14 10:47:31;;;;;;;;;;;27.90;91.80;;;;;;5091201;28;19927;-69
2021/08/14 10:49:57;;;;;;;;;;;28.20;91.70;;;;;;5091496;28;20353;-68
2021/08/14 10:52:38;;;;;;;;;;;28.20;90.90;;;;;;5090161;28;19920;-69
2021/08/14 10:55:04;;;;;;;;;;;27.70;90.20;;;;;;5082590;28;19916;-68
2021/08/14 10:57:35;;;;;;;;;;;26.70;91.70;;;;;;5091524;28;19954;-69
2021/08/14 11:00:01;;;;;;;;;;;26.40;91.60;;;;;;5090922;28;19957;-69
2021/08/14 11:05:03;;;;;;;;;;;26.60;92.80;;;;;;5109128;27;1843346;-68
2021/08/14 11:07:29;;;;;;;;;;;26.50;91.00;;;;;;5173760;27;20021;-71
2021/08/14 11:09:58;;;;;;;;;;;26.70;90.60;;;;;;5173783;27;19907;-70
2021/08/14 11:12:40;;;;;;;;;;;26.40;91.40;;;;;;5155010;27;19907;-70
2021/08/14 11:15:14;;;;;;;;;;;26.30;92.30;;;;;;5173650;27;19911;-70
2021/08/14 11:17:40;;;;;;;;;;;26.70;91.60;;;;;;5173934;27;20006;-71
2021/08/14 11:20:25;;;;;;;;;;;26.80;90.50;;;;;;5155328;27;19950;-70
2021/08/14 11:22:54;;;;;;;;;;;27.00;90.10;;;;;;5154668;27;19994;-70
2021/08/14 11:25:22;;;;;;;;;;;26.70;88.70;;;;;;5173695;27;20001;-70
2021/08/14 11:28:07;;;;;;;;;;;26.90;90.30;;;;;;5173738;27;20435;-70
2021/08/14 11:30:35;;;;;;;;;;;26.80;89.30;;;;;;5173610;27;20249;-70
2021/08/14 11:33:04;;;;;;;;;;;26.50;87.70;;;;;;5173343;27;20005;-70
2021/08/14 11:35:30;;;;;;;;;;;26.50;88.70;;;;;;5173293;27;19942;-70
2021/08/14 11:37:57;;;;;;;;;;;26.40;88.80;;;;;;5173193;27;19911;-70
2021/08/14 11:40:24;;;;;;;;;;;26.50;88.90;;;;;;5136570;27;19907;-70
2021/08/14 11:42:58;;;;;;;;;;;26.20;88.50;;;;;;5173080;27;19945;-70
2021/08/14 11:45:24;;;;;;;;;;;26.40;87.80;;;;;;5173099;27;20328;-70
2021/08/14 11:48:07;;;;;;;;;;;26.40;88.30;;;;;;5173377;27;19942;-70
2021/08/14 11:53:13;;;;;;;;;;;26.90;84.20;;;;;;5092321;27;20357;-70
2021/08/14 11:55:39;;;;;;;;;;;26.50;85.50;;;;;;5092025;28;19912;-68
2021/08/14 11:58:04;;;;;;;;;;;26.50;86.50;;;;;;5091917;28;19908;-69
2021/08/14 12:00:34;;;;;;;;;;;26.80;88.30;;;;;;5091949;28;19915;-69
2021/08/14 12:03:04;;;;;;;;;;;26.80;83.70;;;;;;5090056;28;20273;-70
2021/08/14 12:05:30;;;;;;;;;;;26.70;83.50;;;;;;5091510;28;19915;-70
2021/08/14 12:07:57;;;;;;;;;;;26.90;84.00;;;;;;5091471;28;19995;-70
2021/08/14 12:10:22;;;;;;;;;;;27.10;85.10;;;;;;5123579;28;19913;-70
2021/08/14 12:12:56;;;;;;;;;;;26.80;85.40;;;;;;5091025;28;19913;-69
2021/08/14 12:15:22;;;;;;;;;;;26.90;85.80;;;;;;5091348;28;19912;-70
2021/08/14 12:17:47;;;;;;;;;;;26.60;87.10;;;;;;5124261;28;19915;-70
2021/08/14 12:20:13;;;;;;;;;;;26.50;88.10;;;;;;5091223;28;19916;-68
2021/08/14 12:22:38;;;;;;;;;;;26.90;85.70;;;;;;5091218;28;19915;-70
2021/08/14 12:25:20;;;;;;;;;;;26.50;85.80;;;;;;5091430;28;19944;-70
2021/08/14 12:27:45;;;;;;;;;;;27.10;86.00;;;;;;5091339;28;20372;-70
2021/08/14 12:30:18;;;;;;;;;;;27.00;84.80;;;;;;5091333;28;19908;-70
2021/08/14 12:32:44;;;;;;;;;;;27.00;84.80;;;;;;5091203;28;19912;-69
2021/08/14 12:35:18;;;;;;;;;;;27.10;83.90;;;;;;5091247;28;20327;-69
2021/08/14 12:37:44;;;;;;;;;;;27.00;82.80;;;;;;5091101;28;19908;-70
2021/08/14 12:40:10;;;;;;;;;;;27.00;81.20;;;;;;5091127;28;19947;-70
2021/08/14 12:42:37;;;;;;;;;;;26.80;81.70;;;;;;5091086;28;19915;-70
2021/08/14 12:45:19;;;;;;;;;;;26.70;83.40;;;;;;5091023;28;19912;-68
2021/08/14 12:47:45;;;;;;;;;;;26.60;82.60;;;;;;5091016;28;20373;-70
2021/08/14 12:50:16;;;;;;;;;;;26.60;84.10;;;;;;5090907;28;20407;-70
2021/08/14 12:53:01;;;;;;;;;;;26.40;83.50;;;;;;5106844;28;19969;-70
2021/08/14 12:55:29;;;;;;;;;;;26.20;83.40;;;;;;5111068;28;20246;-70
2021/08/14 12:57:56;;;;;;;;;;;26.50;84.10;;;;;;5110811;28;19998;-69
2021/08/14 13:00:22;;;;;;;;;;;26.90;81.90;;;;;;5110542;28;19941;-70
2021/08/14 13:02:48;;;;;;;;;;;26.50;83.00;;;;;;5106662;28;19908;-70
2021/08/14 13:05:14;;;;;;;;;;;26.60;82.60;;;;;;5096889;28;20344;-70
2021/08/14 13:07:39;;;;;;;;;;;26.60;83.00;;;;;;5097120;28;19943;-70
2021/08/14 13:10:05;;;;;;;;;;;26.90;83.70;;;;;;5097072;28;20315;-70
2021/08/14 13:12:30;;;;;;;;;;;27.10;81.50;;;;;;5079051;28;20005;-70
2021/08/14 13:14:56;;;;;;;;;;;27.10;81.80;;;;;;5097230;28;19908;-70
2021/08/14 13:17:21;;;;;;;;;;;27.10;81.50;;;;;;5096962;28;20399;-70
2021/08/14 13:19:46;;;;;;;;;;;27.20;83.10;;;;;;5096870;28;20344;-70
2021/08/14 13:22:12;;;;;;;;;;;27.00;81.70;;;;;;5096537;28;20278;-70
2021/08/14 13:24:37;;;;;;;;;;;27.00;82.90;;;;;;5097042;28;19908;-70
2021/08/14 13:27:03;;;;;;;;;;;26.80;83.70;;;;;;5097062;28;19953;-70
2021/08/14 13:29:29;;;;;;;;;;;26.50;84.40;;;;;;5096430;28;19915;-70
2021/08/14 13:31:54;;;;;;;;;;;26.60;85.50;;;;;;5096292;28;19912;-70
2021/08/14 13:34:20;;;;;;;;;;;26.40;86.60;;;;;;5096295;28;19916;-70
2021/08/14 13:36:45;;;;;;;;;;;26.40;87.00;;;;;;5096790;28;19908;-69
2021/08/14 13:39:11;;;;;;;;;;;26.50;86.50;;;;;;5096801;28;19908;-70
2021/08/14 13:41:36;;;;;;;;;;;26.60;87.80;;;;;;5096444;28;19908;-70
2021/08/14 13:44:04;;;;;;;;;;;26.40;87.50;;;;;;5096383;28;19966;-70
2021/08/14 13:46:30;;;;;;;;;;;26.20;87.70;;;;;;5096257;28;19912;-70
2021/08/14 13:48:55;;;;;;;;;;;26.20;88.20;;;;;;5096618;28;20349;-70
2021/08/14 13:51:20;;;;;;;;;;;26.30;88.50;;;;;;5096021;28;19920;-70
2021/08/14 13:53:46;;;;;;;;;;;26.20;89.40;;;;;;5077842;28;19962;-69
2021/08/14 13:56:11;;;;;;;;;;;26.20;88.50;;;;;;5095891;28;19911;-69
2021/08/14 13:58:37;;;;;;;;;;;26.30;89.60;;;;;;5096182;28;19931;-70
2021/08/14 14:01:02;;;;;;;;;;;26.30;88.90;;;;;;5095792;28;19908;-70
2021/08/14 14:03:28;;;;;;;;;;;26.60;89.40;;;;;;5095740;28;19915;-69
2021/08/14 14:05:53;;;;;;;;;;;26.60;89.90;;;;;;5095726;28;19908;-70
2021/08/14 14:08:19;;;;;;;;;;;26.50;91.00;;;;;;5095714;28;19909;-70
2021/08/14 14:10:44;;;;;;;;;;;26.70;90.10;;;;;;5095917;28;19998;-70
2021/08/14 14:13:10;;;;;;;;;;;26.80;90.60;;;;;;5095804;28;19912;-70
2021/08/14 14:15:35;;;;;;;;;;;26.90;90.20;;;;;;5094780;28;20246;-70
2021/08/14 14:18:01;;;;;;;;;;;27.00;90.50;;;;;;5095765;28;20268;-70
2021/08/14 14:20:27;;;;;;;;;;;26.90;90.50;;;;;;5095735;28;19955;-70
2021/08/14 14:22:53;;;;;;;;;;;27.00;90.70;;;;;;5095675;28;19970;-70